Time;durP1;ratioP1;P1;durP2;ratioP2;P2;SDS_P1;SDS_P2;PMS_P1;PMS_P2;Temp;Humidity;BMP_temperature;BMP_pressure;BME280_temperature;BME280_humidity;BME280_pressure;Samples;Min_cycle;Max_cycle;Signal;HPM_P1;HPM_P2
2022/03/11 00:00:22;;;;;;;7.70;1.27;;;22.40;99.90;;;;;;5096204;28;20234;-82
2022/03/11 00:02:54;;;;;;;7.05;1.30;;;22.50;99.90;;;;;;5095825;28;20271;-82
2022/03/11 00:05:25;;;;;;;8.68;1.30;;;22.50;99.90;;;;;;5096365;28;20199;-84
2022/03/11 00:07:57;;;;;;;5.03;0.98;;;22.40;99.90;;;;;;5095977;28;20659;-82
2022/03/11 00:10:27;;;;;;;6.63;1.20;;;22.40;99.90;;;;;;5095625;28;20216;-83
2022/03/11 00:12:58;;;;;;;4.68;1.10;;;22.40;99.90;;;;;;5095466;28;20593;-84
2022/03/11 00:15:29;;;;;;;7.13;1.30;;;22.40;99.90;;;;;;5094930;28;20187;-82
2022/03/11 00:18:01;;;;;;;8.38;1.27;;;22.40;99.90;;;;;;5084863;28;20184;-83
2022/03/11 00:20:32;;;;;;;7.20;1.10;;;22.50;99.90;;;;;;5096177;28;20639;-83
2022/03/11 00:23:02;;;;;;;6.68;1.30;;;22.60;99.90;;;;;;5095665;28;20204;-82
2022/03/11 00:25:34;;;;;;;7.03;1.05;;;22.70;99.90;;;;;;5095481;28;20192;-86
2022/03/11 00:28:04;;;;;;;7.88;0.85;;;22.70;99.90;;;;;;5095470;28;20188;-82
2022/03/11 00:30:35;;;;;;;6.75;1.60;;;22.60;99.90;;;;;;5091961;28;20208;-81
2022/03/11 00:33:07;;;;;;;6.93;1.23;;;22.50;99.90;;;;;;5095527;28;20533;-82
2022/03/11 00:35:38;;;;;;;10.18;1.50;;;22.50;99.90;;;;;;5095881;28;20192;-80
2022/03/11 00:38:09;;;;;;;7.63;2.90;;;22.50;99.90;;;;;;5094841;28;20188;-82
2022/03/11 00:40:39;;;;;;;5.13;1.27;;;22.70;99.90;;;;;;5095044;28;20188;-81
2022/03/11 00:43:10;;;;;;;5.47;1.02;;;22.80;99.90;;;;;;5095027;28;20204;-81
2022/03/11 00:45:41;;;;;;;9.00;1.45;;;22.80;99.90;;;;;;5095605;28;20188;-83
2022/03/11 00:48:13;;;;;;;7.10;1.60;;;22.70;99.90;;;;;;5095011;28;20663;-83
2022/03/11 00:50:44;;;;;;;7.63;1.20;;;22.50;99.90;;;;;;5094877;28;20212;-81
2022/03/11 00:53:15;;;;;;;7.65;1.02;;;22.30;99.90;;;;;;5094823;28;20648;-82
2022/03/11 00:55:45;;;;;;;5.93;1.40;;;22.20;99.90;;;;;;5094832;28;20192;-81
2022/03/11 00:58:16;;;;;;;5.88;1.60;;;22.20;99.90;;;;;;5094585;28;20639;-82
2022/03/11 01:00:47;;;;;;;8.20;1.48;;;22.20;99.90;;;;;;5095009;28;20636;-82
2022/03/11 01:03:19;;;;;;;5.65;1.27;;;22.40;99.90;;;;;;5094635;28;20580;-82
2022/03/11 01:05:50;;;;;;;8.30;1.00;;;22.40;99.90;;;;;;5094648;28;20206;-81
2022/03/11 01:08:21;;;;;;;5.78;0.98;;;22.20;99.90;;;;;;5094196;28;20294;-81
2022/03/11 01:10:51;;;;;;;7.43;1.27;;;22.10;99.90;;;;;;5094674;28;20265;-82
2022/03/11 01:13:22;;;;;;;6.90;1.20;;;21.90;99.90;;;;;;5094423;28;20560;-83
2022/03/11 01:15:53;;;;;;;5.75;0.93;;;21.90;99.90;;;;;;5094445;28;20188;-82
2022/03/11 01:18:25;;;;;;;8.70;1.10;;;21.80;99.90;;;;;;5093120;28;20185;-83
2022/03/11 01:20:56;;;;;;;4.38;1.20;;;21.90;99.90;;;;;;5094172;28;20200;-83
2022/03/11 01:23:27;;;;;;;8.30;1.27;;;22.00;99.90;;;;;;5094350;28;20184;-83
2022/03/11 01:25:57;;;;;;;6.50;1.20;;;22.30;99.90;;;;;;5094140;28;20188;-82
2022/03/11 01:28:28;;;;;;;6.72;1.08;;;22.60;99.90;;;;;;5094366;28;20192;-82
2022/03/11 01:30:59;;;;;;;7.18;1.20;;;22.60;99.90;;;;;;5093898;28;20571;-83
2022/03/11 01:33:31;;;;;;;5.00;1.40;;;22.60;99.90;;;;;;5094264;28;20192;-82
2022/03/11 01:36:02;;;;;;;5.18;0.95;;;22.40;99.90;;;;;;5093561;28;20235;-84
2022/03/11 01:38:32;;;;;;;5.28;1.33;;;22.60;99.90;;;;;;5090061;28;20193;-84
2022/03/11 01:41:03;;;;;;;6.03;1.08;;;22.80;99.90;;;;;;5091315;28;20196;-81
2022/03/11 01:43:51;;;;;;;5.18;1.00;;;23.10;99.90;;;;;;5090644;28;20200;-82
2022/03/11 01:46:22;;;;;;;4.57;1.00;;;23.30;99.90;;;;;;5093665;28;20200;-81
2022/03/11 01:48:54;;;;;;;11.00;1.25;;;23.50;99.90;;;;;;5094136;28;20188;-83
2022/03/11 01:51:25;;;;;;;4.80;1.10;;;23.40;99.90;;;;;;5093054;28;20224;-83
2022/03/11 01:53:56;;;;;;;4.93;0.88;;;23.60;99.90;;;;;;5093750;28;20188;-83
2022/03/11 01:56:28;;;;;;;7.40;1.05;;;23.70;99.90;;;;;;5093178;28;20690;-84
2022/03/11 01:59:00;;;;;;;5.55;0.80;;;23.70;99.90;;;;;;5093684;28;20640;-82
2022/03/11 02:01:30;;;;;;;4.07;0.75;;;23.60;99.90;;;;;;5093774;28;20196;-82
2022/03/11 02:04:03;;;;;;;5.18;0.90;;;23.30;99.90;;;;;;5093760;28;20203;-81
2022/03/11 02:06:34;;;;;;;5.03;1.15;;;23.20;99.90;;;;;;5093647;28;20598;-83
2022/03/11 02:09:06;;;;;;;3.60;0.80;;;23.00;99.90;;;;;;5085816;28;20208;-82
2022/03/11 02:11:37;;;;;;;5.82;0.60;;;23.00;99.90;;;;;;5090099;28;20204;-87
2022/03/11 02:14:07;;;;;;;3.50;0.82;;;23.20;99.90;;;;;;5093595;28;20188;-81
2022/03/11 02:16:40;;;;;;;4.72;0.90;;;23.20;99.90;;;;;;5093664;28;20186;-82
2022/03/11 02:19:12;;;;;;;6.05;1.00;;;23.10;99.90;;;;;;5093226;28;20192;-82
2022/03/11 02:21:46;;;;;;;5.75;0.90;;;22.90;99.90;;;;;;5093270;28;20196;-84
2022/03/11 02:24:19;;;;;;;4.57;1.10;;;22.80;99.90;;;;;;5093449;28;20188;-82
2022/03/11 02:26:50;;;;;;;9.07;1.00;;;23.00;99.90;;;;;;5093484;28;20556;-82
2022/03/11 02:29:21;;;;;;;5.57;0.95;;;23.10;99.90;;;;;;5093351;28;20556;-82
2022/03/11 02:31:51;;;;;;;6.65;1.00;;;23.30;99.90;;;;;;5092920;28;20713;-82
2022/03/11 02:34:22;;;;;;;5.68;0.90;;;23.40;99.90;;;;;;5092671;28;20181;-81
2022/03/11 02:36:53;;;;;;;4.03;0.73;;;23.40;99.90;;;;;;5092483;28;20228;-82
2022/03/11 02:39:28;;;;;;;3.45;0.63;;;23.30;99.90;;;;;;5092333;28;20230;-82
2022/03/11 02:42:01;;;;;;;2.85;0.80;;;23.40;99.90;;;;;;5092902;28;20187;-83
2022/03/11 02:44:31;;;;;;;7.03;1.08;;;23.50;99.90;;;;;;5093191;28;20632;-83
2022/03/11 02:47:02;;;;;;;5.25;1.10;;;23.60;99.90;;;;;;5090700;28;20215;-81
2022/03/11 02:49:33;;;;;;;3.45;1.00;;;23.50;99.90;;;;;;5089037;28;20211;-82
2022/03/11 02:52:04;;;;;;;6.43;0.80;;;23.60;99.90;;;;;;5090334;28;20208;-82
2022/03/11 02:54:36;;;;;;;5.38;0.73;;;23.60;99.90;;;;;;5089487;28;20188;-82
2022/03/11 02:57:07;;;;;;;5.10;0.68;;;23.60;99.90;;;;;;5092678;28;20180;-84
2022/03/11 02:59:38;;;;;;;6.43;0.93;;;23.60;99.90;;;;;;5089913;28;20548;-82
2022/03/11 03:02:09;;;;;;;5.32;1.10;;;23.60;99.90;;;;;;5093183;28;20663;-84
2022/03/11 03:04:39;;;;;;;5.18;1.27;;;23.50;99.90;;;;;;5093772;28;20651;-83
2022/03/11 03:07:11;;;;;;;5.38;0.90;;;23.50;99.90;;;;;;5092920;28;20249;-82
2022/03/11 03:09:44;;;;;;;7.82;0.88;;;23.60;99.90;;;;;;5092682;28;20749;-82
2022/03/11 03:12:15;;;;;;;3.80;0.80;;;23.40;99.90;;;;;;5092867;28;20664;-85
2022/03/11 03:14:46;;;;;;;4.05;0.80;;;23.50;99.90;;;;;;5092806;28;20241;-83
2022/03/11 03:17:18;;;;;;;4.82;0.98;;;23.60;99.90;;;;;;5092451;28;20246;-85
2022/03/11 03:19:49;;;;;;;8.90;1.25;;;23.70;99.90;;;;;;5092939;28;20541;-84
2022/03/11 03:22:19;;;;;;;4.97;1.10;;;23.70;99.90;;;;;;5093393;28;20199;-83
2022/03/11 03:24:55;;;;;;;4.45;1.00;;;23.70;99.90;;;;;;5093749;28;20184;-91
2022/03/11 03:27:25;;;;;;;4.97;1.13;;;23.60;99.90;;;;;;5085428;28;20229;-83
2022/03/11 03:29:56;;;;;;;4.78;1.00;;;23.50;99.90;;;;;;5092604;28;20192;-81
2022/03/11 03:32:27;;;;;;;5.68;0.90;;;23.50;99.90;;;;;;5095985;28;20208;-83
2022/03/11 03:34:57;;;;;;;4.15;1.10;;;23.50;99.90;;;;;;5097200;28;20188;-86
2022/03/11 03:37:28;;;;;;;4.22;0.98;;;23.50;99.90;;;;;;5096648;28;20277;-83
2022/03/11 03:40:00;;;;;;;5.55;0.80;;;23.60;99.90;;;;;;5097629;28;20578;-82
2022/03/11 03:42:31;;;;;;;4.18;0.95;;;23.70;99.90;;;;;;5097456;28;20189;-83
2022/03/11 03:45:02;;;;;;;5.30;1.05;;;23.70;99.90;;;;;;5087131;28;20200;-83
2022/03/11 03:47:32;;;;;;;6.18;1.02;;;23.60;99.90;;;;;;5097265;28;20188;-86
2022/03/11 03:50:03;;;;;;;6.28;1.15;;;23.60;99.90;;;;;;5096999;28;20189;-83
2022/03/11 03:52:34;;;;;;;4.30;0.90;;;23.60;99.90;;;;;;5093196;28;20227;-84
2022/03/11 03:55:07;;;;;;;7.25;1.15;;;23.70;99.90;;;;;;5097239;28;20185;-91
2022/03/11 03:57:38;;;;;;;4.07;1.02;;;23.60;99.90;;;;;;5096588;28;20184;-84
2022/03/11 04:00:09;;;;;;;3.53;0.75;;;23.70;99.90;;;;;;5096313;28;20189;-84
2022/03/11 04:02:46;;;;;;;5.47;1.17;;;23.60;99.90;;;;;;5096111;28;20212;-82
2022/03/11 04:05:17;;;;;;;3.92;0.85;;;23.70;99.90;;;;;;5095988;28;20192;-82
2022/03/11 04:07:50;;;;;;;4.40;0.73;;;23.60;99.90;;;;;;5096219;28;20200;-84
2022/03/11 04:10:23;;;;;;;5.70;0.80;;;23.60;99.90;;;;;;5096309;28;20200;-82
2022/03/11 04:12:54;;;;;;;4.88;0.80;;;23.60;99.90;;;;;;5096330;28;20277;-83
2022/03/11 04:15:25;;;;;;;12.05;2.70;;;23.50;99.90;;;;;;5095500;28;20701;-82
2022/03/11 04:17:56;;;;;;;5.95;0.98;;;23.60;99.90;;;;;;5096042;28;20601;-84
2022/03/11 04:20:26;;;;;;;3.30;0.80;;;23.60;99.90;;;;;;5095204;28;20250;-89
2022/03/11 04:22:57;;;;;;;4.32;0.98;;;23.70;99.90;;;;;;5097659;28;20193;-84
2022/03/11 04:25:30;;;;;;;5.07;0.98;;;23.70;99.90;;;;;;5096488;28;20632;-85
2022/03/11 04:28:00;;;;;;;5.10;0.77;;;23.60;99.90;;;;;;5097284;28;20191;-82
2022/03/11 04:30:31;;;;;;;7.30;1.05;;;23.60;99.90;;;;;;5096527;28;20640;-82
2022/03/11 04:33:02;;;;;;;4.40;0.77;;;23.70;99.90;;;;;;5096026;28;20220;-84
2022/03/11 04:35:32;;;;;;;3.67;0.80;;;23.80;99.90;;;;;;5096236;28;20576;-82
2022/03/11 04:38:03;;;;;;;2.63;1.00;;;23.70;99.90;;;;;;5096726;28;20268;-85
2022/03/11 04:40:38;;;;;;;4.90;1.13;;;23.70;99.90;;;;;;5100425;28;20193;-83
2022/03/11 04:43:09;;;;;;;7.03;1.00;;;23.60;99.90;;;;;;5096683;28;20556;-85
2022/03/11 04:45:40;;;;;;;4.35;1.13;;;23.70;99.90;;;;;;5095736;28;20192;-81
2022/03/11 04:48:11;;;;;;;4.43;1.10;;;23.70;99.90;;;;;;5095868;28;20189;-81
2022/03/11 04:50:42;;;;;;;4.15;0.90;;;23.60;99.90;;;;;;5095738;28;20191;-85
2022/03/11 04:53:12;;;;;;;6.75;0.90;;;23.60;99.90;;;;;;5095370;28;20223;-82
2022/03/11 04:55:45;;;;;;;4.00;0.90;;;23.50;99.90;;;;;;5095637;28;20192;-82
2022/03/11 04:58:15;;;;;;;2.78;0.95;;;23.30;99.90;;;;;;5095400;28;20199;-81
2022/03/11 05:00:46;;;;;;;3.45;0.90;;;23.00;99.90;;;;;;5095845;28;20192;-83
2022/03/11 05:03:17;;;;;;;4.72;1.08;;;23.00;99.90;;;;;;5095850;28;20278;-81
2022/03/11 05:05:48;;;;;;;3.58;0.80;;;23.00;99.90;;;;;;5095794;28;20675;-88
2022/03/11 05:08:18;;;;;;;3.15;0.85;;;23.10;99.90;;;;;;5095011;28;20621;-84
2022/03/11 05:10:51;;;;;;;2.90;0.75;;;23.20;99.90;;;;;;5095438;28;20188;-81
2022/03/11 05:13:22;;;;;;;3.45;0.88;;;23.30;99.90;;;;;;5095285;28;20212;-83
2022/03/11 05:15:52;;;;;;;7.80;1.10;;;23.40;99.90;;;;;;5094935;28;20193;-81
2022/03/11 05:18:23;;;;;;;6.75;0.90;;;23.30;99.90;;;;;;5095174;28;20196;-81
2022/03/11 05:20:54;;;;;;;4.57;1.08;;;23.30;99.90;;;;;;5095025;28;20241;-83
2022/03/11 05:23:25;;;;;;;4.68;0.85;;;23.30;99.90;;;;;;5094936;28;20196;-82
2022/03/11 05:25:57;;;;;;;6.40;1.23;;;23.30;99.90;;;;;;5094864;28;20192;-81
2022/03/11 05:28:28;;;;;;;5.50;0.90;;;23.30;99.90;;;;;;5094901;28;20207;-82
2022/03/11 05:30:58;;;;;;;6.03;0.80;;;23.40;99.90;;;;;;5094675;28;20188;-82
2022/03/11 05:33:29;;;;;;;3.30;0.60;;;23.50;99.90;;;;;;5094801;28;20212;-84
2022/03/11 05:36:00;;;;;;;4.97;0.70;;;23.50;99.90;;;;;;5094725;28;20192;-82
2022/03/11 05:38:30;;;;;;;6.97;0.85;;;23.40;99.90;;;;;;5094806;28;20200;-81
2022/03/11 05:41:03;;;;;;;3.58;0.70;;;23.20;99.90;;;;;;5094608;28;20640;-84
2022/03/11 05:43:33;;;;;;;6.70;0.82;;;23.20;99.90;;;;;;5094404;28;20196;-83
2022/03/11 05:46:04;;;;;;;4.28;0.70;;;23.00;99.90;;;;;;5094650;28;20197;-82
2022/03/11 05:48:35;;;;;;;3.15;0.70;;;23.00;99.90;;;;;;5094914;28;20193;-84
2022/03/11 05:51:05;;;;;;;2.22;0.70;;;22.90;99.90;;;;;;5094471;28;20195;-83
2022/03/11 05:53:36;;;;;;;4.80;0.70;;;22.70;99.90;;;;;;5094407;28;20219;-82
2022/03/11 05:56:09;;;;;;;4.35;0.70;;;22.60;99.90;;;;;;5093514;28;20195;-85
2022/03/11 05:58:40;;;;;;;4.18;0.70;;;22.60;99.90;;;;;;5094260;28;20193;-82
2022/03/11 06:01:11;;;;;;;5.20;0.90;;;22.50;99.90;;;;;;5094269;28;20188;-82
2022/03/11 06:03:41;;;;;;;5.68;1.20;;;22.50;99.90;;;;;;5094207;28;20658;-83
2022/03/11 06:06:12;;;;;;;3.30;0.90;;;22.40;99.90;;;;;;5094149;28;20593;-82
2022/03/11 06:08:43;;;;;;;5.50;0.73;;;22.40;99.90;;;;;;5094225;28;20691;-82
2022/03/11 06:11:15;;;;;;;3.38;0.70;;;22.40;99.90;;;;;;5094098;28;20200;-82
2022/03/11 06:13:46;;;;;;;4.32;0.90;;;22.30;99.90;;;;;;5093602;28;20224;-83
2022/03/11 06:16:20;;;;;;;4.20;0.73;;;22.30;99.90;;;;;;5094140;28;20193;-88
2022/03/11 06:18:51;;;;;;;6.60;0.80;;;22.40;99.90;;;;;;5094372;28;20198;-92
2022/03/11 06:21:22;;;;;;;5.95;0.85;;;22.40;99.90;;;;;;5094248;28;20190;-86
2022/03/11 06:23:52;;;;;;;4.65;0.77;;;22.40;99.90;;;;;;5094311;28;20234;-83
2022/03/11 06:26:25;;;;;;;5.18;0.80;;;22.40;99.90;;;;;;5094133;28;20188;-83
2022/03/11 06:28:56;;;;;;;7.47;0.90;;;22.30;99.90;;;;;;5093952;28;20196;-86
2022/03/11 06:31:26;;;;;;;4.05;0.80;;;22.20;99.90;;;;;;5093472;28;20237;-83
2022/03/11 06:33:58;;;;;;;2.38;0.70;;;22.00;99.90;;;;;;5093680;28;20576;-81
2022/03/11 06:36:29;;;;;;;5.53;0.90;;;22.00;99.90;;;;;;5093517;28;20228;-85
2022/03/11 06:39:00;;;;;;;5.10;0.90;;;22.00;99.90;;;;;;5093691;28;20192;-81
2022/03/11 06:41:33;;;;;;;5.72;0.90;;;22.00;99.90;;;;;;5093352;28;20196;-82
2022/03/11 06:44:03;;;;;;;2.95;0.85;;;22.00;99.90;;;;;;5093628;28;20188;-82
2022/03/11 06:46:34;;;;;;;5.85;0.95;;;22.00;99.90;;;;;;5093563;28;20195;-83
2022/03/11 06:49:05;;;;;;;5.93;0.75;;;22.00;99.90;;;;;;5093505;28;20192;-82
2022/03/11 06:51:36;;;;;;;5.90;0.70;;;22.10;99.90;;;;;;5093425;28;20192;-85
2022/03/11 06:54:07;;;;;;;5.38;0.70;;;22.20;99.90;;;;;;5093508;28;20675;-82
2022/03/11 06:56:40;;;;;;;3.60;0.80;;;22.10;99.90;;;;;;5093638;28;20196;-82
2022/03/11 06:59:10;;;;;;;6.55;0.82;;;22.10;99.90;;;;;;5093537;28;20189;-82
2022/03/11 07:01:44;;;;;;;4.25;1.00;;;22.00;99.90;;;;;;5093264;28;20238;-83
2022/03/11 07:04:14;;;;;;;3.10;0.90;;;21.90;99.90;;;;;;5093489;28;20261;-82
2022/03/11 07:06:45;;;;;;;8.02;1.13;;;21.90;99.90;;;;;;5095511;28;20200;-82
2022/03/11 07:09:15;;;;;;;5.30;1.10;;;21.80;99.90;;;;;;5097228;28;20230;-84
2022/03/11 07:11:50;;;;;;;2.40;0.82;;;21.70;99.90;;;;;;5097290;28;20693;-82
2022/03/11 07:14:21;;;;;;;2.88;0.73;;;21.70;99.90;;;;;;5097399;28;20270;-83
2022/03/11 07:16:52;;;;;;;4.55;0.88;;;21.70;99.90;;;;;;5097500;28;20193;-82
2022/03/11 07:19:23;;;;;;;5.80;0.70;;;21.70;99.90;;;;;;5097331;28;20192;-82
2022/03/11 07:21:53;;;;;;;4.43;0.70;;;21.70;99.90;;;;;;5097303;28;20241;-85
2022/03/11 07:24:24;;;;;;;4.60;0.75;;;21.70;99.90;;;;;;5097368;28;20565;-84
2022/03/11 07:26:57;;;;;;;4.05;0.70;;;21.60;99.90;;;;;;5097104;28;20857;-82
2022/03/11 07:29:27;;;;;;;4.03;0.70;;;21.60;99.90;;;;;;5097247;28;20193;-83
2022/03/11 07:31:58;;;;;;;6.22;0.88;;;21.60;99.90;;;;;;5097501;28;20203;-82
2022/03/11 07:34:28;;;;;;;2.85;0.80;;;21.50;99.90;;;;;;5097080;28;20216;-82
2022/03/11 07:36:59;;;;;;;4.88;0.90;;;21.50;99.90;;;;;;5096968;28;20285;-82
2022/03/11 07:39:30;;;;;;;7.00;1.30;;;21.50;99.90;;;;;;5096763;28;20192;-82
2022/03/11 07:42:02;;;;;;;3.92;0.90;;;21.40;99.90;;;;;;5097019;28;20188;-83
2022/03/11 07:44:34;;;;;;;5.90;0.85;;;21.40;99.90;;;;;;5096975;28;20268;-82
2022/03/11 07:47:04;;;;;;;4.18;0.90;;;21.40;99.90;;;;;;5096990;28;20279;-83
2022/03/11 07:49:35;;;;;;;5.70;1.23;;;21.40;99.90;;;;;;5096812;28;20192;-82
2022/03/11 07:52:06;;;;;;;6.28;1.30;;;21.40;99.90;;;;;;5096730;28;20644;-81
2022/03/11 07:54:37;;;;;;;5.50;1.00;;;21.40;99.90;;;;;;5096411;28;20219;-82
2022/03/11 07:57:09;;;;;;;4.55;1.23;;;21.30;99.90;;;;;;5096674;28;20192;-82
2022/03/11 07:59:41;;;;;;;7.35;0.90;;;21.20;99.90;;;;;;5096622;28;20237;-82
2022/03/11 08:02:12;;;;;;;4.32;1.10;;;21.20;99.90;;;;;;5096588;28;20185;-85
2022/03/11 08:04:43;;;;;;;5.63;1.10;;;21.20;99.90;;;;;;5076276;28;20200;-82
2022/03/11 08:07:13;;;;;;;6.07;1.60;;;21.20;99.90;;;;;;5076244;28;20185;-82
2022/03/11 08:09:44;;;;;;;4.05;1.00;;;21.10;99.90;;;;;;5095235;28;20220;-82
2022/03/11 08:12:16;;;;;;;3.70;0.98;;;21.10;99.90;;;;;;5096314;28;20233;-82
2022/03/11 08:14:47;;;;;;;2.85;1.00;;;21.00;99.90;;;;;;5096241;28;20216;-83
2022/03/11 08:17:18;;;;;;;5.20;1.10;;;21.00;99.90;;;;;;5095645;28;20196;-82
2022/03/11 08:19:48;;;;;;;4.32;1.00;;;21.00;99.90;;;;;;5095916;28;20195;-83
2022/03/11 08:22:19;;;;;;;6.50;1.00;;;20.90;99.90;;;;;;5096164;28;20192;-82
2022/03/11 08:24:50;;;;;;;3.80;1.00;;;20.90;99.90;;;;;;5095910;28;20192;-85
2022/03/11 08:27:22;;;;;;;5.80;1.25;;;20.90;99.90;;;;;;5096288;28;20273;-83
2022/03/11 08:29:53;;;;;;;6.32;1.10;;;20.80;99.90;;;;;;5096173;28;20249;-83
2022/03/11 08:32:24;;;;;;;4.47;1.00;;;20.80;99.90;;;;;;5096034;28;20191;-83
2022/03/11 08:34:55;;;;;;;3.63;1.40;;;20.80;99.90;;;;;;5095954;28;20212;-83
2022/03/11 08:37:26;;;;;;;3.53;1.00;;;20.80;99.90;;;;;;5095844;28;20593;-83
2022/03/11 08:39:56;;;;;;;4.45;1.25;;;20.80;99.90;;;;;;5095774;28;20599;-83
2022/03/11 08:42:29;;;;;;;6.53;1.20;;;20.80;99.90;;;;;;5095738;28;20632;-83
2022/03/11 08:45:00;;;;;;;5.68;1.33;;;20.80;99.90;;;;;;5095776;28;20192;-83
2022/03/11 08:47:30;;;;;;;7.63;1.45;;;20.80;99.90;;;;;;5095801;28;20234;-82
2022/03/11 08:50:02;;;;;;;4.70;1.33;;;20.80;99.90;;;;;;5095662;28;20644;-83
2022/03/11 08:52:34;;;;;;;4.65;1.30;;;20.80;99.90;;;;;;5095427;28;20188;-83
2022/03/11 08:55:05;;;;;;;4.82;1.60;;;20.80;99.90;;;;;;5095550;28;20937;-83
2022/03/11 08:57:38;;;;;;;4.55;1.45;;;20.80;99.90;;;;;;5095545;28;20192;-83
2022/03/11 09:00:12;;;;;;;5.63;1.65;;;20.80;99.90;;;;;;5095395;28;20234;-83
2022/03/11 09:02:43;;;;;;;4.78;1.50;;;20.80;99.90;;;;;;5095355;28;20530;-82
2022/03/11 09:05:15;;;;;;;8.30;1.52;;;20.80;99.90;;;;;;5095375;28;20644;-83
2022/03/11 09:07:45;;;;;;;5.00;1.13;;;20.80;99.90;;;;;;5094802;28;20566;-82
2022/03/11 09:10:17;;;;;;;5.13;1.33;;;20.80;99.90;;;;;;5095178;28;20188;-82
2022/03/11 09:12:50;;;;;;;5.10;1.30;;;20.80;99.90;;;;;;5095134;28;20243;-82
2022/03/11 09:15:21;;;;;;;5.03;1.27;;;20.80;99.90;;;;;;5095104;28;20226;-82
2022/03/11 09:17:52;;;;;;;5.13;1.40;;;20.90;99.90;;;;;;5095257;28;20238;-82
2022/03/11 09:20:24;;;;;;;4.05;1.30;;;20.90;99.90;;;;;;5095100;28;20188;-82
2022/03/11 09:22:54;;;;;;;5.15;1.20;;;20.90;99.90;;;;;;5094815;28;20192;-83
2022/03/11 09:25:25;;;;;;;5.05;1.10;;;20.80;99.90;;;;;;5095009;28;20666;-83
2022/03/11 09:27:58;;;;;;;3.88;1.02;;;20.80;99.90;;;;;;5094988;28;20188;-82
2022/03/11 09:30:28;;;;;;;5.07;1.20;;;20.80;99.90;;;;;;5094670;28;20184;-83
2022/03/11 09:32:59;;;;;;;4.93;1.20;;;20.80;99.90;;;;;;5094850;28;20644;-83
2022/03/11 09:35:30;;;;;;;4.28;1.33;;;20.80;99.90;;;;;;5094525;28;20212;-83
2022/03/11 09:38:00;;;;;;;5.78;1.08;;;20.80;99.90;;;;;;5094066;28;20227;-82
2022/03/11 09:40:31;;;;;;;5.20;1.30;;;20.80;99.90;;;;;;5094410;28;20184;-82
2022/03/11 09:43:04;;;;;;;4.88;1.40;;;20.80;99.90;;;;;;5094491;28;20595;-82
2022/03/11 09:45:35;;;;;;;5.00;1.23;;;20.80;99.90;;;;;;5094544;28;20191;-83
2022/03/11 09:48:06;;;;;;;4.32;1.00;;;20.80;99.90;;;;;;5094333;28;20219;-82
2022/03/11 09:50:37;;;;;;;5.53;1.33;;;20.80;99.90;;;;;;5090925;28;20275;-82
2022/03/11 09:53:08;;;;;;;4.18;1.08;;;20.80;99.90;;;;;;5094166;28;20194;-82
2022/03/11 09:55:38;;;;;;;4.60;1.17;;;20.80;99.90;;;;;;5090892;28;20199;-82
2022/03/11 09:58:11;;;;;;;5.03;1.23;;;20.80;99.90;;;;;;5094036;28;20188;-83
2022/03/11 10:00:42;;;;;;;5.75;1.27;;;20.80;99.90;;;;;;5094159;28;20192;-83
2022/03/11 10:03:12;;;;;;;8.57;1.45;;;20.80;99.90;;;;;;5093707;28;20195;-82
2022/03/11 10:05:50;;;;;;;7.47;1.33;;;20.80;99.90;;;;;;5093697;28;20184;-82
2022/03/11 10:08:32;;;;;;;4.15;1.30;;;20.80;99.90;;;;;;5093351;28;20220;-83
2022/03/11 10:11:24;;;;;;;5.55;1.40;;;20.70;99.90;;;;;;5090803;28;20188;-83
2022/03/11 10:14:05;;;;;;;6.20;1.60;;;20.80;99.90;;;;;;5092479;28;20319;-82
2022/03/11 10:16:36;;;;;;;5.43;1.50;;;20.80;99.90;;;;;;5093800;28;20693;-82
2022/03/11 10:19:09;;;;;;;6.05;1.38;;;20.80;99.90;;;;;;5090969;28;20275;-83
2022/03/11 10:21:41;;;;;;;7.68;1.60;;;20.70;99.90;;;;;;5090626;28;20196;-82
2022/03/11 10:24:14;;;;;;;9.45;1.30;;;20.80;99.90;;;;;;5093371;28;20199;-82
2022/03/11 10:26:45;;;;;;;6.07;1.10;;;20.80;99.90;;;;;;5093226;28;20184;-83
2022/03/11 10:29:20;;;;;;;4.82;1.00;;;20.80;99.90;;;;;;5093833;28;20608;-83
2022/03/11 10:31:52;;;;;;;4.80;1.40;;;20.80;99.90;;;;;;5093127;28;20229;-83
2022/03/11 10:34:26;;;;;;;8.52;1.60;;;20.80;99.90;;;;;;5092517;28;20261;-83
2022/03/11 10:36:58;;;;;;;4.55;1.13;;;20.80;99.90;;;;;;5093079;28;20231;-83
2022/03/11 10:39:30;;;;;;;4.60;1.30;;;20.80;99.90;;;;;;5092431;28;20188;-83
2022/03/11 10:42:02;;;;;;;4.95;1.10;;;20.80;99.90;;;;;;5092239;28;20193;-82
2022/03/11 10:44:35;;;;;;;5.72;1.17;;;20.80;99.90;;;;;;5092987;28;20647;-82
2022/03/11 10:47:22;;;;;;;3.40;1.10;;;20.80;99.90;;;;;;5090577;28;20694;-83
2022/03/11 10:49:53;;;;;;;4.70;1.08;;;20.70;99.90;;;;;;5091611;28;20237;-82
2022/03/11 10:52:36;;;;;;;4.45;1.00;;;20.70;99.90;;;;;;5092866;28;20632;-83
2022/03/11 10:55:22;;;;;;;5.10;1.15;;;20.70;99.90;;;;;;5090670;28;20269;-83
2022/03/11 10:57:55;;;;;;;4.78;1.00;;;20.70;99.90;;;;;;5091683;28;20229;-83
2022/03/11 11:00:29;;;;;;;3.40;0.80;;;20.70;99.90;;;;;;5092071;28;20709;-82
2022/03/11 11:03:01;;;;;;;5.85;0.88;;;20.60;99.90;;;;;;5092368;28;20187;-83
2022/03/11 11:05:32;;;;;;;5.88;1.20;;;20.60;99.90;;;;;;5092584;28;20203;-83
2022/03/11 11:08:04;;;;;;;4.45;0.98;;;20.50;99.90;;;;;;5092416;28;20220;-83
2022/03/11 11:10:37;;;;;;;3.75;1.00;;;20.50;99.90;;;;;;5089252;28;20188;-83
2022/03/11 11:13:09;;;;;;;4.18;0.98;;;20.40;99.90;;;;;;5091000;28;20188;-83
2022/03/11 11:15:43;;;;;;;5.93;1.08;;;20.40;99.90;;;;;;5089661;28;20333;-83
2022/03/11 11:18:16;;;;;;;7.00;1.20;;;20.40;99.90;;;;;;5092514;28;20184;-83
2022/03/11 11:20:50;;;;;;;5.30;1.55;;;20.30;99.90;;;;;;5092787;28;20185;-83
2022/03/11 11:23:21;;;;;;;7.70;1.10;;;20.30;99.90;;;;;;5092718;28;20188;-83
2022/03/11 11:25:54;;;;;;;6.05;1.35;;;20.30;99.90;;;;;;5092871;28;20192;-83
2022/03/11 11:28:26;;;;;;;5.47;1.48;;;20.20;99.90;;;;;;5092443;28;20185;-83
2022/03/11 11:31:00;;;;;;;6.95;1.50;;;20.10;99.90;;;;;;5092417;28;20224;-82
2022/03/11 11:33:31;;;;;;;2.17;0.98;;;20.10;99.90;;;;;;5092344;28;20192;-82
2022/03/11 11:36:03;;;;;;;4.70;1.20;;;20.00;99.90;;;;;;5089363;28;20612;-82
2022/03/11 11:38:37;;;;;;;3.83;1.27;;;20.00;99.90;;;;;;5092843;28;20652;-82
2022/03/11 11:41:26;;;;;;;4.30;1.15;;;20.00;99.90;;;;;;5090600;28;20193;-82
2022/03/11 11:43:59;;;;;;;7.57;1.50;;;19.90;99.90;;;;;;5092072;28;20549;-82
2022/03/11 11:46:33;;;;;;;6.53;1.40;;;19.90;99.90;;;;;;5091731;28;20188;-83
2022/03/11 11:49:22;;;;;;;4.28;1.40;;;19.80;99.90;;;;;;5090087;28;20200;-83
2022/03/11 11:52:04;;;;;;;3.90;1.50;;;19.80;99.90;;;;;;5091911;28;20185;-83
2022/03/11 11:54:45;;;;;;;6.88;1.70;;;19.80;99.90;;;;;;5092299;28;20250;-83
2022/03/11 11:57:39;;;;;;;3.88;1.50;;;19.80;99.90;;;;;;5095139;28;21478;-82
2022/03/11 12:00:31;;;;;;;4.30;1.40;;;19.80;99.90;;;;;;5085936;28;20192;-82
2022/03/11 12:03:04;;;;;;;5.53;1.50;;;19.80;99.90;;;;;;5085017;28;20271;-82
2022/03/11 12:05:48;;;;;;;5.13;1.60;;;19.80;99.90;;;;;;5092733;28;20241;-83
2022/03/11 12:08:53;;;;;;;4.45;1.55;;;19.80;99.90;;;;;;5095373;28;20223;-82
2022/03/11 12:11:43;;;;;;;3.65;1.20;;;19.80;99.90;;;;;;5095179;28;20192;-83
2022/03/11 12:14:13;;;;;;;6.32;1.30;;;19.80;99.90;;;;;;5094319;28;20188;-82
2022/03/11 12:17:04;;;;;;;5.68;1.30;;;19.80;99.90;;;;;;5095429;28;20195;-82
2022/03/11 12:19:46;;;;;;;4.03;1.08;;;19.80;99.90;;;;;;5092233;28;20249;-82
2022/03/11 12:22:35;;;;;;;3.35;1.52;;;19.70;99.90;;;;;;5094683;28;20252;-83
2022/03/11 12:25:08;;;;;;;4.93;1.40;;;19.70;99.90;;;;;;5085252;28;20188;-82
2022/03/11 12:28:00;;;;;;;5.35;1.58;;;19.70;99.90;;;;;;5095536;28;20644;-83
2022/03/11 12:30:31;;;;;;;5.88;1.63;;;19.70;99.90;;;;;;5095069;28;20604;-82
2022/03/11 12:33:04;;;;;;;5.47;1.60;;;19.70;99.90;;;;;;5092558;28;20188;-82
2022/03/11 12:35:38;;;;;;;5.93;1.60;;;19.70;99.90;;;;;;5091488;28;20748;-82
2022/03/11 12:38:14;;;;;;;6.28;2.20;;;19.60;99.90;;;;;;5093709;28;20188;-82
2022/03/11 12:40:47;;;;;;;5.40;1.90;;;19.60;99.90;;;;;;5092727;28;20184;-83
2022/03/11 12:43:18;;;;;;;5.50;1.80;;;19.60;99.90;;;;;;5095239;28;20188;-83
2022/03/11 12:45:50;;;;;;;5.05;1.60;;;19.60;99.90;;;;;;5094778;28;20586;-83
2022/03/11 12:48:22;;;;;;;3.05;1.50;;;19.50;99.90;;;;;;5094909;28;20566;-83
2022/03/11 12:50:54;;;;;;;5.18;2.13;;;19.50;99.90;;;;;;5094934;28;20181;-83
2022/03/11 12:53:25;;;;;;;4.65;1.60;;;19.50;99.90;;;;;;5095497;28;20184;-83
2022/03/11 12:55:57;;;;;;;5.47;1.80;;;19.50;99.90;;;;;;5095144;28;20212;-82
2022/03/11 12:58:31;;;;;;;6.53;1.70;;;19.60;99.90;;;;;;5087258;28;20596;-84
2022/03/11 13:01:04;;;;;;;6.15;1.70;;;19.60;99.90;;;;;;5092202;28;20647;-86
2022/03/11 13:03:36;;;;;;;3.97;1.20;;;19.60;99.90;;;;;;5094372;28;20271;-86
2022/03/11 13:06:10;;;;;;;3.90;1.30;;;19.60;99.90;;;;;;5092716;28;20203;-86
2022/03/11 13:08:42;;;;;;;3.45;1.30;;;19.50;99.90;;;;;;5094605;28;20215;-85
2022/03/11 13:11:14;;;;;;;5.78;1.40;;;19.50;99.90;;;;;;5094939;28;20553;-86